sensor_id;sensor_type;location;lat;lon;timestamp;pressure;altitude;pressure_sealevel;temperature;humidity
5954;BME280;3002;42.642;24.812;2023-05-18T00:02:05;95893.75;;;15.20;100.00
5954;BME280;3002;42.642;24.812;2023-05-18T00:04:35;95904.91;;;15.51;100.00
5954;BME280;3002;42.642;24.812;2023-05-18T00:07:02;95902.47;;;15.79;100.00
5954;BME280;3002;42.642;24.812;2023-05-18T00:09:35;95897.31;;;15.99;100.00
5954;BME280;3002;42.642;24.812;2023-05-18T00:12:02;95881.38;;;15.73;100.00
5954;BME280;3002;42.642;24.812;2023-05-18T00:14:29;95907.13;;;16.03;100.00
5954;BME280;3002;42.642;24.812;2023-05-18T00:16:55;95908.16;;;16.23;100.00
5954;BME280;3002;42.642;24.812;2023-05-18T00:19:21;95896.13;;;16.33;100.00
5954;BME280;3002;42.642;24.812;2023-05-18T00:21:48;95888.06;;;16.00;100.00
5954;BME280;3002;42.642;24.812;2023-05-18T00:24:15;95892.03;;;16.02;100.00
5954;BME280;3002;42.642;24.812;2023-05-18T00:26:42;95898.81;;;16.21;100.00
5954;BME280;3002;42.642;24.812;2023-05-18T00:29:08;95901.41;;;16.29;100.00
5954;BME280;3002;42.642;24.812;2023-05-18T00:31:34;95893.41;;;16.21;100.00
5954;BME280;3002;42.642;24.812;2023-05-18T00:34:06;95901.19;;;16.22;100.00
5954;BME280;3002;42.642;24.812;2023-05-18T00:36:33;95895.53;;;16.15;100.00
5954;BME280;3002;42.642;24.812;2023-05-18T00:38:59;95895.53;;;16.15;100.00
5954;BME280;3002;42.642;24.812;2023-05-18T00:41:25;95895.63;;;16.06;100.00
5954;BME280;3002;42.642;24.812;2023-05-18T00:43:52;95895.53;;;16.15;100.00
5954;BME280;3002;42.642;24.812;2023-05-18T00:46:17;95892.06;;;16.15;100.00
5954;BME280;3002;42.642;24.812;2023-05-18T00:48:43;95878.19;;;16.16;100.00
5954;BME280;3002;42.642;24.812;2023-05-18T00:51:10;95870.84;;;16.04;100.00
5954;BME280;3002;42.642;24.812;2023-05-18T00:53:36;95887.50;;;16.06;100.00
5954;BME280;3002;42.642;24.812;2023-05-18T00:56:02;95898.56;;;16.01;100.00
5954;BME280;3002;42.642;24.812;2023-05-18T00:58:28;95900.59;;;15.38;100.00
5954;BME280;3002;42.642;24.812;2023-05-18T01:00:55;95905.34;;;15.41;100.00
5954;BME280;3002;42.642;24.812;2023-05-18T01:03:21;95895.00;;;15.43;100.00
5954;BME280;3002;42.642;24.812;2023-05-18T01:05:47;95902.66;;;15.74;100.00
5954;BME280;3002;42.642;24.812;2023-05-18T01:08:21;95890.84;;;15.79;100.00
5954;BME280;3002;42.642;24.812;2023-05-18T01:10:52;95889.94;;;15.75;100.00
5954;BME280;3002;42.642;24.812;2023-05-18T01:16:25;95896.97;;;15.34;100.00
5954;BME280;3002;42.642;24.812;2023-05-18T01:19:14;95895.47;;;15.04;100.00
5954;BME280;3002;42.642;24.812;2023-05-18T01:24:42;95904.72;;;15.23;100.00
5954;BME280;3002;42.642;24.812;2023-05-18T01:27:12;95898.69;;;15.39;100.00
5954;BME280;3002;42.642;24.812;2023-05-18T01:29:41;95897.16;;;15.29;100.00
5954;BME280;3002;42.642;24.812;2023-05-18T01:32:07;95886.00;;;15.51;100.00
5954;BME280;3002;42.642;24.812;2023-05-18T01:34:33;95888.22;;;15.37;100.00
5954;BME280;3002;42.642;24.812;2023-05-18T01:36:58;95902.66;;;15.20;100.00
5954;BME280;3002;42.642;24.812;2023-05-18T01:39:24;95894.00;;;14.85;100.00
5954;BME280;3002;42.642;24.812;2023-05-18T01:42:01;95900.63;;;15.17;100.00
5954;BME280;3002;42.642;24.812;2023-05-18T01:44:55;95896.78;;;15.18;100.00
5954;BME280;3002;42.642;24.812;2023-05-18T01:47:23;95902.72;;;15.33;100.00
5954;BME280;3002;42.642;24.812;2023-05-18T01:49:54;95904.63;;;15.11;100.00
5954;BME280;3002;42.642;24.812;2023-05-18T01:54:56;95917.97;;;15.49;100.00
5954;BME280;3002;42.642;24.812;2023-05-18T01:57:26;95919.81;;;15.58;100.00
5954;BME280;3002;42.642;24.812;2023-05-18T01:59:53;95919.22;;;15.52;100.00
5954;BME280;3002;42.642;24.812;2023-05-18T02:02:19;95906.00;;;14.96;100.00
5954;BME280;3002;42.642;24.812;2023-05-18T02:04:45;95903.69;;;15.49;100.00
5954;BME280;3002;42.642;24.812;2023-05-18T02:07:11;95918.34;;;15.81;100.00
5954;BME280;3002;42.642;24.812;2023-05-18T02:09:36;95915.09;;;15.88;100.00
5954;BME280;3002;42.642;24.812;2023-05-18T02:12:02;95913.38;;;15.50;100.00
5954;BME280;3002;42.642;24.812;2023-05-18T02:14:27;95925.41;;;15.73;100.00
5954;BME280;3002;42.642;24.812;2023-05-18T02:16:53;95935.09;;;15.74;100.00
5954;BME280;3002;42.642;24.812;2023-05-18T02:19:19;95932.38;;;15.41;100.00
5954;BME280;3002;42.642;24.812;2023-05-18T02:21:45;95933.22;;;15.33;100.00
5954;BME280;3002;42.642;24.812;2023-05-18T02:24:11;95941.41;;;15.24;100.00
5954;BME280;3002;42.642;24.812;2023-05-18T02:26:37;95937.63;;;15.17;100.00
5954;BME280;3002;42.642;24.812;2023-05-18T02:29:05;95941.75;;;15.35;100.00
5954;BME280;3002;42.642;24.812;2023-05-18T02:31:31;95941.91;;;15.39;100.00
5954;BME280;3002;42.642;24.812;2023-05-18T02:33:57;95944.41;;;15.23;100.00
5954;BME280;3002;42.642;24.812;2023-05-18T02:36:22;95952.84;;;15.42;100.00
5954;BME280;3002;42.642;24.812;2023-05-18T02:38:48;95959.91;;;15.56;100.00
5954;BME280;3002;42.642;24.812;2023-05-18T02:41:13;95956.34;;;15.64;100.00
5954;BME280;3002;42.642;24.812;2023-05-18T02:43:39;95967.28;;;15.67;100.00
5954;BME280;3002;42.642;24.812;2023-05-18T02:46:05;95960.22;;;15.75;100.00
5954;BME280;3002;42.642;24.812;2023-05-18T02:48:31;95957.31;;;15.59;100.00
5954;BME280;3002;42.642;24.812;2023-05-18T02:50:56;95960.91;;;15.72;100.00
5954;BME280;3002;42.642;24.812;2023-05-18T02:53:23;95946.31;;;15.64;100.00
5954;BME280;3002;42.642;24.812;2023-05-18T02:55:53;95958.78;;;15.77;100.00
5954;BME280;3002;42.642;24.812;2023-05-18T02:58:21;95958.31;;;15.75;100.00
5954;BME280;3002;42.642;24.812;2023-05-18T03:00:47;95932.88;;;15.89;100.00
5954;BME280;3002;42.642;24.812;2023-05-18T03:03:13;95953.88;;;15.71;100.00
5954;BME280;3002;42.642;24.812;2023-05-18T03:05:39;95955.22;;;15.65;100.00
5954;BME280;3002;42.642;24.812;2023-05-18T03:08:05;95956.72;;;15.74;100.00
5954;BME280;3002;42.642;24.812;2023-05-18T03:10:31;95950.25;;;15.88;100.00
5954;BME280;3002;42.642;24.812;2023-05-18T03:12:56;95939.88;;;15.77;100.00
5954;BME280;3002;42.642;24.812;2023-05-18T03:15:22;95954.91;;;15.66;100.00
5954;BME280;3002;42.642;24.812;2023-05-18T03:17:47;95952.25;;;15.78;100.00
5954;BME280;3002;42.642;24.812;2023-05-18T03:20:13;95960.59;;;15.86;100.00
5954;BME280;3002;42.642;24.812;2023-05-18T03:22:39;95948.47;;;15.71;100.00
5954;BME280;3002;42.642;24.812;2023-05-18T03:25:06;95957.84;;;15.73;100.00
5954;BME280;3002;42.642;24.812;2023-05-18T03:27:32;95971.22;;;15.91;100.00
5954;BME280;3002;42.642;24.812;2023-05-18T03:29:58;95949.59;;;15.91;100.00
5954;BME280;3002;42.642;24.812;2023-05-18T03:32:23;95969.50;;;16.19;100.00
5954;BME280;3002;42.642;24.812;2023-05-18T03:34:52;95975.75;;;15.99;100.00
5954;BME280;3002;42.642;24.812;2023-05-18T03:37:18;95974.75;;;16.03;100.00
5954;BME280;3002;42.642;24.812;2023-05-18T03:39:43;95996.78;;;16.26;100.00
5954;BME280;3002;42.642;24.812;2023-05-18T03:42:09;95988.53;;;16.23;100.00
5954;BME280;3002;42.642;24.812;2023-05-18T03:44:35;95986.56;;;16.32;100.00
5954;BME280;3002;42.642;24.812;2023-05-18T03:47:00;96005.38;;;16.41;100.00
5954;BME280;3002;42.642;24.812;2023-05-18T03:49:26;95990.34;;;16.31;100.00
5954;BME280;3002;42.642;24.812;2023-05-18T03:51:51;96002.91;;;16.48;100.00
5954;BME280;3002;42.642;24.812;2023-05-18T03:54:21;96015.13;;;16.66;100.00
5954;BME280;3002;42.642;24.812;2023-05-18T03:56:46;96008.56;;;16.67;100.00
5954;BME280;3002;42.642;24.812;2023-05-18T03:59:12;96031.97;;;16.72;100.00
5954;BME280;3002;42.642;24.812;2023-05-18T04:01:38;96032.50;;;16.65;100.00
5954;BME280;3002;42.642;24.812;2023-05-18T04:04:09;96008.84;;;16.87;100.00
5954;BME280;3002;42.642;24.812;2023-05-18T04:06:45;96037.06;;;17.22;100.00
5954;BME280;3002;42.642;24.812;2023-05-18T04:09:11;96027.91;;;16.78;100.00
5954;BME280;3002;42.642;24.812;2023-05-18T04:11:39;96016.13;;;16.49;100.00
5954;BME280;3002;42.642;24.812;2023-05-18T04:14:06;96052.75;;;17.17;100.00
5954;BME280;3002;42.642;24.812;2023-05-18T04:16:32;96052.19;;;17.11;100.00
5954;BME280;3002;42.642;24.812;2023-05-18T04:18:58;96046.22;;;17.05;100.00
5954;BME280;3002;42.642;24.812;2023-05-18T04:21:24;96037.97;;;17.14;100.00
5954;BME280;3002;42.642;24.812;2023-05-18T04:23:50;96047.00;;;17.06;100.00
5954;BME280;3002;42.642;24.812;2023-05-18T04:26:15;96040.66;;;17.38;100.00
5954;BME280;3002;42.642;24.812;2023-05-18T04:28:45;96054.88;;;17.72;100.00
5954;BME280;3002;42.642;24.812;2023-05-18T04:31:12;96058.53;;;17.27;100.00
5954;BME280;3002;42.642;24.812;2023-05-18T04:33:39;96055.09;;;17.43;100.00
5954;BME280;3002;42.642;24.812;2023-05-18T04:36:05;96054.50;;;17.61;100.00
5954;BME280;3002;42.642;24.812;2023-05-18T04:38:33;96063.88;;;17.88;100.00
5954;BME280;3002;42.642;24.812;2023-05-18T04:40:59;96035.13;;;17.35;100.00
5954;BME280;3002;42.642;24.812;2023-05-18T04:43:25;96066.84;;;17.59;100.00
5954;BME280;3002;42.642;24.812;2023-05-18T04:45:52;96073.63;;;17.77;100.00
5954;BME280;3002;42.642;24.812;2023-05-18T04:48:18;96067.16;;;17.70;100.00
5954;BME280;3002;42.642;24.812;2023-05-18T04:50:44;96066.38;;;17.81;100.00
5954;BME280;3002;42.642;24.812;2023-05-18T04:53:10;96067.19;;;17.08;100.00
5954;BME280;3002;42.642;24.812;2023-05-18T04:55:36;96079.13;;;17.69;100.00
5954;BME280;3002;42.642;24.812;2023-05-18T04:58:02;96073.97;;;17.76;100.00
5954;BME280;3002;42.642;24.812;2023-05-18T05:00:29;96084.69;;;17.72;100.00
5954;BME280;3002;42.642;24.812;2023-05-18T05:02:56;96060.88;;;17.29;100.00
5954;BME280;3002;42.642;24.812;2023-05-18T05:05:22;96061.78;;;17.57;100.00
5954;BME280;3002;42.642;24.812;2023-05-18T05:07:49;96078.31;;;17.92;100.00
5954;BME280;3002;42.642;24.812;2023-05-18T05:10:16;96071.22;;;17.88;100.00
5954;BME280;3002;42.642;24.812;2023-05-18T05:12:43;96074.56;;;17.97;100.00
5954;BME280;3002;42.642;24.812;2023-05-18T05:15:09;96072.09;;;17.92;100.00
5954;BME280;3002;42.642;24.812;2023-05-18T05:17:35;96071.09;;;17.84;100.00
5954;BME280;3002;42.642;24.812;2023-05-18T05:20:00;96084.06;;;17.91;100.00
5954;BME280;3002;42.642;24.812;2023-05-18T05:22:26;96070.94;;;18.05;100.00
5954;BME280;3002;42.642;24.812;2023-05-18T05:24:51;96077.53;;;17.80;100.00
5954;BME280;3002;42.642;24.812;2023-05-18T05:27:17;96060.13;;;17.81;100.00
5954;BME280;3002;42.642;24.812;2023-05-18T05:29:45;96052.94;;;17.60;100.00
5954;BME280;3002;42.642;24.812;2023-05-18T05:32:11;96072.25;;;17.83;100.00
5954;BME280;3002;42.642;24.812;2023-05-18T05:34:37;96069.34;;;18.04;100.00
5954;BME280;3002;42.642;24.812;2023-05-18T05:37:03;96087.69;;;17.95;100.00
5954;BME280;3002;42.642;24.812;2023-05-18T05:39:28;96075.00;;;18.11;100.00
5954;BME280;3002;42.642;24.812;2023-05-18T05:41:54;96083.34;;;18.34;100.00
5954;BME280;3002;42.642;24.812;2023-05-18T05:44:19;96080.84;;;18.41;100.00
5954;BME280;3002;42.642;24.812;2023-05-18T05:46:45;96089.88;;;18.74;100.00
5954;BME280;3002;42.642;24.812;2023-05-18T05:49:14;96086.72;;;18.15;100.00
5954;BME280;3002;42.642;24.812;2023-05-18T05:51:39;96086.81;;;18.75;100.00
5954;BME280;3002;42.642;24.812;2023-05-18T05:54:05;96080.00;;;18.97;100.00
5954;BME280;3002;42.642;24.812;2023-05-18T05:56:30;96094.25;;;19.41;100.00
5954;BME280;3002;42.642;24.812;2023-05-18T05:58:55;96096.38;;;19.32;100.00
5954;BME280;3002;42.642;24.812;2023-05-18T06:01:21;96098.47;;;19.39;100.00
5954;BME280;3002;42.642;24.812;2023-05-18T06:03:47;96099.69;;;19.57;100.00
5954;BME280;3002;42.642;24.812;2023-05-18T06:06:13;96100.53;;;19.77;100.00
5954;BME280;3002;42.642;24.812;2023-05-18T06:08:39;96103.59;;;19.91;100.00
5954;BME280;3002;42.642;24.812;2023-05-18T06:11:04;96090.97;;;20.02;100.00
5954;BME280;3002;42.642;24.812;2023-05-18T06:13:30;96097.22;;;19.52;100.00
5954;BME280;3002;42.642;24.812;2023-05-18T06:15:56;96112.78;;;19.67;100.00
5954;BME280;3002;42.642;24.812;2023-05-18T06:18:21;96112.59;;;19.60;100.00
5954;BME280;3002;42.642;24.812;2023-05-18T06:20:47;96109.44;;;19.42;100.00
5954;BME280;3002;42.642;24.812;2023-05-18T06:23:12;96114.56;;;18.68;100.00
5954;BME280;3002;42.642;24.812;2023-05-18T06:25:39;96097.88;;;18.54;100.00
5954;BME280;3002;42.642;24.812;2023-05-18T06:28:04;96114.28;;;19.02;100.00
5954;BME280;3002;42.642;24.812;2023-05-18T06:30:30;96103.09;;;18.75;100.00
5954;BME280;3002;42.642;24.812;2023-05-18T06:32:56;96128.78;;;18.78;100.00
5954;BME280;3002;42.642;24.812;2023-05-18T06:35:21;96113.56;;;18.61;100.00
5954;BME280;3002;42.642;24.812;2023-05-18T06:37:48;96126.22;;;18.69;100.00
5954;BME280;3002;42.642;24.812;2023-05-18T06:40:13;96125.47;;;18.56;100.00
5954;BME280;3002;42.642;24.812;2023-05-18T06:42:39;96099.16;;;18.44;100.00
5954;BME280;3002;42.642;24.812;2023-05-18T06:45:05;96139.41;;;18.98;100.00
5954;BME280;3002;42.642;24.812;2023-05-18T06:47:30;96142.06;;;19.11;100.00
5954;BME280;3002;42.642;24.812;2023-05-18T06:49:56;96150.66;;;18.29;100.00
5954;BME280;3002;42.642;24.812;2023-05-18T06:52:22;96131.88;;;18.92;100.00
5954;BME280;3002;42.642;24.812;2023-05-18T06:54:48;96146.53;;;18.19;100.00
5954;BME280;3002;42.642;24.812;2023-05-18T06:57:13;96159.72;;;18.89;100.00
5954;BME280;3002;42.642;24.812;2023-05-18T06:59:39;96150.97;;;18.80;100.00
5954;BME280;3002;42.642;24.812;2023-05-18T07:02:05;96159.44;;;19.22;100.00
5954;BME280;3002;42.642;24.812;2023-05-18T07:04:30;96150.97;;;18.80;100.00
5954;BME280;3002;42.642;24.812;2023-05-18T07:06:56;96166.31;;;18.88;100.00
5954;BME280;3002;42.642;24.812;2023-05-18T07:09:22;96171.84;;;18.91;100.00
5954;BME280;3002;42.642;24.812;2023-05-18T07:11:48;96166.03;;;17.97;100.00
5954;BME280;3002;42.642;24.812;2023-05-18T07:14:13;96177.50;;;18.58;100.00
5954;BME280;3002;42.642;24.812;2023-05-18T07:16:39;96175.19;;;19.01;100.00
5954;BME280;3002;42.642;24.812;2023-05-18T07:19:04;96170.13;;;18.31;100.00
5954;BME280;3002;42.642;24.812;2023-05-18T07:21:30;96195.44;;;18.35;100.00
5954;BME280;3002;42.642;24.812;2023-05-18T07:23:55;96179.59;;;17.84;100.00
5954;BME280;3002;42.642;24.812;2023-05-18T07:26:21;96195.19;;;18.00;100.00
5954;BME280;3002;42.642;24.812;2023-05-18T07:28:47;96207.72;;;18.69;100.00
5954;BME280;3002;42.642;24.812;2023-05-18T07:31:13;96201.94;;;18.58;100.00
5954;BME280;3002;42.642;24.812;2023-05-18T07:33:41;96184.41;;;18.68;100.00
5954;BME280;3002;42.642;24.812;2023-05-18T07:36:07;96214.50;;;19.19;100.00
5954;BME280;3002;42.642;24.812;2023-05-18T07:38:32;96191.75;;;18.27;100.00
5954;BME280;3002;42.642;24.812;2023-05-18T07:40:58;96205.56;;;18.62;100.00
5954;BME280;3002;42.642;24.812;2023-05-18T07:43:24;96221.00;;;18.86;100.00
5954;BME280;3002;42.642;24.812;2023-05-18T07:45:50;96225.94;;;18.96;100.00
5954;BME280;3002;42.642;24.812;2023-05-18T07:48:15;96206.22;;;18.99;100.00
5954;BME280;3002;42.642;24.812;2023-05-18T07:50:41;96227.59;;;19.01;100.00
5954;BME280;3002;42.642;24.812;2023-05-18T07:53:07;96225.63;;;19.14;100.00
5954;BME280;3002;42.642;24.812;2023-05-18T07:55:32;96234.59;;;18.86;100.00
5954;BME280;3002;42.642;24.812;2023-05-18T07:57:58;96243.47;;;18.99;100.00
5954;BME280;3002;42.642;24.812;2023-05-18T08:00:25;96254.22;;;19.23;100.00
5954;BME280;3002;42.642;24.812;2023-05-18T08:02:50;96250.53;;;18.48;100.00
5954;BME280;3002;42.642;24.812;2023-05-18T08:05:16;96256.31;;;19.14;100.00
5954;BME280;3002;42.642;24.812;2023-05-18T08:07:42;96239.78;;;19.19;100.00
5954;BME280;3002;42.642;24.812;2023-05-18T08:10:09;96256.97;;;19.55;100.00
5954;BME280;3002;42.642;24.812;2023-05-18T08:12:40;96260.94;;;19.58;100.00
5954;BME280;3002;42.642;24.812;2023-05-18T08:15:06;96257.72;;;19.24;100.00
5954;BME280;3002;42.642;24.812;2023-05-18T08:17:32;96262.25;;;19.04;100.00
5954;BME280;3002;42.642;24.812;2023-05-18T08:19:57;96242.13;;;19.21;100.00
5954;BME280;3002;42.642;24.812;2023-05-18T08:22:22;96259.41;;;19.88;100.00
5954;BME280;3002;42.642;24.812;2023-05-18T08:24:48;96265.22;;;19.87;100.00
5954;BME280;3002;42.642;24.812;2023-05-18T08:27:13;96271.34;;;19.84;96.56
5954;BME280;3002;42.642;24.812;2023-05-18T08:29:39;96269.31;;;19.96;97.14
5954;BME280;3002;42.642;24.812;2023-05-18T08:32:05;96254.47;;;19.94;98.98
5954;BME280;3002;42.642;24.812;2023-05-18T08:34:31;96263.88;;;19.96;100.00
5954;BME280;3002;42.642;24.812;2023-05-18T08:36:57;96272.03;;;19.96;100.00
5954;BME280;3002;42.642;24.812;2023-05-18T08:39:22;96263.94;;;20.67;98.75
5954;BME280;3002;42.642;24.812;2023-05-18T08:42:00;96257.56;;;20.98;97.89
5954;BME280;3002;42.642;24.812;2023-05-18T08:47:55;96278.44;;;19.72;100.00
5954;BME280;3002;42.642;24.812;2023-05-18T08:50:22;96291.84;;;20.79;100.00
5954;BME280;3002;42.642;24.812;2023-05-18T08:52:53;96294.78;;;20.90;92.19
5954;BME280;3002;42.642;24.812;2023-05-18T08:55:19;96299.56;;;20.58;89.90
5954;BME280;3002;42.642;24.812;2023-05-18T08:57:51;96305.13;;;21.00;89.48
5954;BME280;3002;42.642;24.812;2023-05-18T09:00:21;96303.63;;;20.83;85.69
5954;BME280;3002;42.642;24.812;2023-05-18T09:02:48;96293.78;;;20.79;85.57
5954;BME280;3002;42.642;24.812;2023-05-18T09:05:15;96306.34;;;21.03;83.61
5954;BME280;3002;42.642;24.812;2023-05-18T09:07:42;96317.28;;;20.68;87.70
5954;BME280;3002;42.642;24.812;2023-05-18T09:10:11;96312.66;;;21.26;81.38
5954;BME280;3002;42.642;24.812;2023-05-18T09:12:40;96312.97;;;21.41;81.60
5954;BME280;3002;42.642;24.812;2023-05-18T09:15:09;96310.66;;;21.85;76.07
5954;BME280;3002;42.642;24.812;2023-05-18T09:17:35;96300.03;;;22.03;74.17
5954;BME280;3002;42.642;24.812;2023-05-18T09:20:01;96315.53;;;22.18;73.03
5954;BME280;3002;42.642;24.812;2023-05-18T09:22:29;96308.88;;;21.50;77.21
5954;BME280;3002;42.642;24.812;2023-05-18T09:24:55;96294.66;;;21.22;78.78
5954;BME280;3002;42.642;24.812;2023-05-18T09:27:22;96315.25;;;21.81;77.91
5954;BME280;3002;42.642;24.812;2023-05-18T09:29:55;96320.34;;;21.21;77.14
5954;BME280;3002;42.642;24.812;2023-05-18T09:32:21;96302.75;;;20.79;82.68
5954;BME280;3002;42.642;24.812;2023-05-18T09:34:47;96309.78;;;20.29;85.25
5954;BME280;3002;42.642;24.812;2023-05-18T09:37:20;96324.63;;;20.16;88.35
5954;BME280;3002;42.642;24.812;2023-05-18T09:44:59;96329.38;;;19.44;95.48
5954;BME280;3002;42.642;24.812;2023-05-18T09:47:26;96326.97;;;19.42;93.33
5954;BME280;3002;42.642;24.812;2023-05-18T09:49:55;96325.63;;;19.20;95.40
5954;BME280;3002;42.642;24.812;2023-05-18T09:52:20;96326.50;;;19.24;95.23
5954;BME280;3002;42.642;24.812;2023-05-18T09:54:56;96334.75;;;19.56;94.83
5954;BME280;3002;42.642;24.812;2023-05-18T09:57:23;96329.16;;;19.37;98.24
5954;BME280;3002;42.642;24.812;2023-05-18T09:59:55;96326.91;;;19.39;95.48
5954;BME280;3002;42.642;24.812;2023-05-18T10:02:20;96339.16;;;19.33;98.62
5954;BME280;3002;42.642;24.812;2023-05-18T10:04:49;96343.28;;;18.62;100.00
5954;BME280;3002;42.642;24.812;2023-05-18T10:07:16;96352.28;;;19.31;100.00
5954;BME280;3002;42.642;24.812;2023-05-18T10:09:43;96347.88;;;19.38;97.29
5954;BME280;3002;42.642;24.812;2023-05-18T10:12:12;96361.28;;;19.47;95.66
5954;BME280;3002;42.642;24.812;2023-05-18T10:14:42;96354.47;;;19.53;93.48
5954;BME280;3002;42.642;24.812;2023-05-18T10:17:12;96358.41;;;19.68;98.37
5954;BME280;3002;42.642;24.812;2023-05-18T10:19:39;96361.66;;;19.73;92.22
5954;BME280;3002;42.642;24.812;2023-05-18T10:22:06;96344.22;;;19.06;95.62
5954;BME280;3002;42.642;24.812;2023-05-18T10:24:34;96374.53;;;20.04;91.38
5954;BME280;3002;42.642;24.812;2023-05-18T10:27:05;96365.97;;;20.38;84.67
5954;BME280;3002;42.642;24.812;2023-05-18T10:29:33;96377.34;;;20.24;83.77
5954;BME280;3002;42.642;24.812;2023-05-18T10:31:59;96371.22;;;19.67;84.32
5954;BME280;3002;42.642;24.812;2023-05-18T10:34:28;96365.91;;;20.18;82.50
5954;BME280;3002;42.642;24.812;2023-05-18T10:36:55;96375.38;;;20.72;81.88
5954;BME280;3002;42.642;24.812;2023-05-18T10:39:22;96372.75;;;20.44;81.22
5954;BME280;3002;42.642;24.812;2023-05-18T10:41:50;96373.56;;;20.28;81.96
5954;BME280;3002;42.642;24.812;2023-05-18T10:44:17;96384.56;;;20.64;81.13
5954;BME280;3002;42.642;24.812;2023-05-18T10:46:43;96379.78;;;20.76;79.89
5954;BME280;3002;42.642;24.812;2023-05-18T10:49:10;96383.31;;;20.61;81.47
5954;BME280;3002;42.642;24.812;2023-05-18T10:51:40;96385.13;;;20.89;72.72
5954;BME280;3002;42.642;24.812;2023-05-18T10:54:11;96394.72;;;20.82;76.83
5954;BME280;3002;42.642;24.812;2023-05-18T10:56:39;96395.94;;;20.85;78.98
5954;BME280;3002;42.642;24.812;2023-05-18T10:59:07;96382.84;;;20.75;80.27
5954;BME280;3002;42.642;24.812;2023-05-18T11:01:33;96385.69;;;20.98;82.36
5954;BME280;3002;42.642;24.812;2023-05-18T11:04:05;96389.88;;;21.11;80.56
5954;BME280;3002;42.642;24.812;2023-05-18T11:06:30;96390.56;;;20.89;76.79
5954;BME280;3002;42.642;24.812;2023-05-18T11:09:00;96395.81;;;20.97;78.45
5954;BME280;3002;42.642;24.812;2023-05-18T11:11:26;96382.63;;;20.99;79.42
5954;BME280;3002;42.642;24.812;2023-05-18T11:13:59;96393.44;;;21.31;77.21
5954;BME280;3002;42.642;24.812;2023-05-18T11:16:35;96401.34;;;21.36;77.41
5954;BME280;3002;42.642;24.812;2023-05-18T11:19:08;96402.16;;;20.85;74.19
5954;BME280;3002;42.642;24.812;2023-05-18T11:24:30;96410.03;;;21.06;75.82
5954;BME280;3002;42.642;24.812;2023-05-18T11:27:01;96417.81;;;20.89;75.45
5954;BME280;3002;42.642;24.812;2023-05-18T11:29:34;96416.47;;;20.63;73.70
5954;BME280;3002;42.642;24.812;2023-05-18T11:32:00;96429.16;;;20.27;73.31
5954;BME280;3002;42.642;24.812;2023-05-18T11:34:45;96425.50;;;20.51;72.35
5954;BME280;3002;42.642;24.812;2023-05-18T11:37:15;96427.47;;;20.07;75.53
5954;BME280;3002;42.642;24.812;2023-05-18T11:39:42;96433.09;;;19.70;74.45
5954;BME280;3002;42.642;24.812;2023-05-18T11:42:17;96438.53;;;19.70;79.19
5954;BME280;3002;42.642;24.812;2023-05-18T11:44:50;96446.03;;;20.17;79.84
5954;BME280;3002;42.642;24.812;2023-05-18T11:47:17;96444.66;;;19.55;83.90
5954;BME280;3002;42.642;24.812;2023-05-18T11:49:44;96450.66;;;19.20;81.66
5954;BME280;3002;42.642;24.812;2023-05-18T11:52:21;96445.66;;;19.75;79.87
5954;BME280;3002;42.642;24.812;2023-05-18T11:57:18;96442.22;;;18.97;97.06
5954;BME280;3002;42.642;24.812;2023-05-18T11:59:51;96452.19;;;19.46;86.80
5954;BME280;3002;42.642;24.812;2023-05-18T12:02:20;96448.44;;;19.63;94.04
5954;BME280;3002;42.642;24.812;2023-05-18T12:04:50;96452.09;;;19.83;90.68
5954;BME280;3002;42.642;24.812;2023-05-18T12:07:21;96433.03;;;19.83;91.93
5954;BME280;3002;42.642;24.812;2023-05-18T12:09:49;96449.09;;;20.16;89.81
5954;BME280;3002;42.642;24.812;2023-05-18T12:12:16;96436.91;;;20.41;90.27
5954;BME280;3002;42.642;24.812;2023-05-18T12:14:46;96420.72;;;20.17;92.35
5954;BME280;3002;42.642;24.812;2023-05-18T12:17:14;96440.88;;;20.60;90.50
5954;BME280;3002;42.642;24.812;2023-05-18T12:19:43;96444.97;;;20.38;89.70
5954;BME280;3002;42.642;24.812;2023-05-18T12:22:12;96435.22;;;20.84;91.15
5954;BME280;3002;42.642;24.812;2023-05-18T12:24:39;96427.00;;;20.65;90.04
5954;BME280;3002;42.642;24.812;2023-05-18T12:27:06;96423.53;;;21.54;83.44
5954;BME280;3002;42.642;24.812;2023-05-18T12:29:33;96422.81;;;20.87;87.73
5954;BME280;3002;42.642;24.812;2023-05-18T12:32:04;96430.06;;;21.30;80.85
5954;BME280;3002;42.642;24.812;2023-05-18T12:34:30;96439.84;;;20.64;84.31
5954;BME280;3002;42.642;24.812;2023-05-18T12:36:55;96438.34;;;20.07;82.93
5954;BME280;3002;42.642;24.812;2023-05-18T12:39:23;96439.19;;;19.80;85.19
5954;BME280;3002;42.642;24.812;2023-05-18T12:41:48;96427.28;;;20.00;88.71
5954;BME280;3002;42.642;24.812;2023-05-18T12:44:14;96431.88;;;19.68;91.60
5954;BME280;3002;42.642;24.812;2023-05-18T12:46:40;96441.13;;;19.95;90.97
5954;BME280;3002;42.642;24.812;2023-05-18T12:49:07;96434.16;;;20.25;85.15
5954;BME280;3002;42.642;24.812;2023-05-18T12:51:34;96432.91;;;19.91;90.35
5954;BME280;3002;42.642;24.812;2023-05-18T12:54:09;96435.47;;;19.32;91.92
5954;BME280;3002;42.642;24.812;2023-05-18T12:56:50;96434.97;;;19.42;88.82
5954;BME280;3002;42.642;24.812;2023-05-18T12:59:19;96435.50;;;19.60;89.45
5954;BME280;3002;42.642;24.812;2023-05-18T13:01:44;96433.25;;;19.49;92.66
5954;BME280;3002;42.642;24.812;2023-05-18T13:04:11;96431.66;;;19.48;89.31
5954;BME280;3002;42.642;24.812;2023-05-18T13:06:37;96450.53;;;19.29;84.34
5954;BME280;3002;42.642;24.812;2023-05-18T13:09:07;96453.72;;;19.19;83.67
5954;BME280;3002;42.642;24.812;2023-05-18T13:11:33;96461.69;;;19.92;80.48
5954;BME280;3002;42.642;24.812;2023-05-18T13:14:06;96462.13;;;19.02;94.08
5954;BME280;3002;42.642;24.812;2023-05-18T13:16:33;96470.34;;;18.44;95.37
5954;BME280;3002;42.642;24.812;2023-05-18T13:19:04;96469.03;;;18.87;89.90
5954;BME280;3002;42.642;24.812;2023-05-18T13:21:30;96464.84;;;19.66;88.23
5954;BME280;3002;42.642;24.812;2023-05-18T13:23:57;96467.97;;;20.24;81.41
5954;BME280;3002;42.642;24.812;2023-05-18T13:26:23;96474.69;;;20.74;73.85
5954;BME280;3002;42.642;24.812;2023-05-18T13:28:54;96470.94;;;20.79;74.62